Pingyin, China
Current Conditions -  °F | °C
As of 5:00 PM on Monday 24 Nov 2014 (Local Time) from ZSJN Reporting Station
Haze Haze  
Wind Chill: 46°   Ceiling: Unl
Heat Index: 48°   Visibility: 1.5mi
Dew Point: 37°   Wind: 4mph
Humidity: 66%   Direction: 10°N
Pressure: 30.27"   Gusts: NA
Location:  36.28°N, 116.43°E
Report Text: ZSJN 240900Z 01002MPS 2500 HZ NSC 09/03 Q1025 NOSIG
Loading
Personal Weather Stations






























Interactive Weather Map New forecast layout! Learn more

10-Day Weather Forecast

Advertisements
Track Severe Weather on mobile